createdAt,value
2022-10-04T00:01:50.145Z,17.13
2022-10-04T00:04:28.074Z,15.40
2022-10-04T00:07:14.654Z,14.57
2022-10-04T00:09:58.203Z,13.27
2022-10-04T00:12:33.382Z,16.95
2022-10-04T00:15:05.491Z,12.38
2022-10-04T00:17:32.855Z,14.93
2022-10-04T00:19:59.471Z,12.60
2022-10-04T00:22:26.843Z,15.18
2022-10-04T00:25:08.491Z,14.45
2022-10-04T00:27:36.735Z,13.13
2022-10-04T00:30:03.108Z,13.82
2022-10-04T00:32:38.687Z,18.83
2022-10-04T00:35:25.034Z,13.43
2022-10-04T00:37:58.438Z,16.42
2022-10-04T00:40:31.504Z,13.82
2022-10-04T00:43:19.768Z,16.52
2022-10-04T00:45:51.529Z,16.73
2022-10-04T00:48:38.148Z,14.18
2022-10-04T00:51:43.799Z,16.83
2022-10-04T00:54:18.239Z,11.60
2022-10-04T00:57:07.591Z,14.18
2022-10-04T00:59:48.045Z,11.88
2022-10-04T01:02:17.428Z,14.20
2022-10-04T01:04:51.713Z,11.93
2022-10-04T01:07:27.157Z,24.02
2022-10-04T01:09:58.633Z,14.07
2022-10-04T01:12:42.338Z,15.77
2022-10-04T01:15:16.255Z,15.07
2022-10-04T01:18:18.589Z,14.27
2022-10-04T01:21:02.828Z,10.85
2022-10-04T01:23:47.548Z,13.60
2022-10-04T01:26:29.000Z,14.00
2022-10-04T01:28:55.361Z,10.48
2022-10-04T01:31:22.269Z,15.52
2022-10-04T01:33:48.765Z,16.05
2022-10-04T01:36:15.624Z,13.98
2022-10-04T01:38:42.141Z,20.60
2022-10-04T01:41:10.945Z,13.45
2022-10-04T01:43:42.393Z,13.02
2022-10-04T01:46:15.345Z,16.23
2022-10-04T01:48:45.786Z,15.15
2022-10-04T01:51:30.232Z,12.50
2022-10-04T01:54:02.437Z,9.48
2022-10-04T01:56:39.328Z,11.73
2022-10-04T01:59:13.550Z,13.32
2022-10-04T02:01:52.987Z,15.90
2022-10-04T02:04:27.013Z,16.35
2022-10-04T02:06:57.373Z,12.45
2022-10-04T02:09:31.987Z,12.88
2022-10-04T02:11:58.930Z,19.67
2022-10-04T02:14:30.798Z,14.23
2022-10-04T02:16:58.697Z,15.13
2022-10-04T02:19:32.346Z,10.38
2022-10-04T02:22:00.923Z,11.02
2022-10-04T02:24:27.509Z,24.63
2022-10-04T02:26:54.208Z,13.45
2022-10-04T02:29:23.848Z,12.25
2022-10-04T02:31:51.798Z,12.77
2022-10-04T02:34:19.192Z,15.43
2022-10-04T02:36:45.934Z,12.48
2022-10-04T02:39:20.590Z,10.65
2022-10-04T02:42:04.022Z,17.05
2022-10-04T02:44:34.575Z,12.20
2022-10-04T02:47:23.915Z,13.07
2022-10-04T02:49:57.891Z,11.00
2022-10-04T02:52:36.278Z,12.68
2022-10-04T02:55:09.516Z,16.05
2022-10-04T02:57:36.359Z,16.08
2022-10-04T03:00:18.017Z,13.15
2022-10-04T03:03:12.001Z,12.70
2022-10-04T03:05:40.313Z,16.65
2022-10-04T03:08:07.791Z,15.73
2022-10-04T03:10:35.498Z,17.42
2022-10-04T03:13:03.866Z,23.08
2022-10-04T03:15:31.510Z,47.97
2022-10-04T03:17:59.752Z,22.70
2022-10-04T03:20:26.642Z,19.17
2022-10-04T03:22:56.040Z,26.00
2022-10-04T03:25:28.155Z,11.90
2022-10-04T03:27:56.953Z,19.80
2022-10-04T03:30:23.618Z,19.27
2022-10-04T03:32:50.818Z,27.83
2022-10-04T03:35:31.126Z,16.65
2022-10-04T03:37:59.732Z,37.03
2022-10-04T03:40:30.442Z,24.75
2022-10-04T03:42:59.018Z,20.10
2022-10-04T03:45:27.835Z,15.52
2022-10-04T03:48:06.453Z,22.20
2022-10-04T03:50:45.464Z,32.45
2022-10-04T03:53:29.589Z,14.10
2022-10-04T03:55:58.244Z,11.40
2022-10-04T03:58:30.864Z,16.10
2022-10-04T04:01:29.480Z,15.30
2022-10-04T04:04:33.462Z,18.20
2022-10-04T04:07:06.571Z,12.48
2022-10-04T04:09:38.896Z,14.23
2022-10-04T04:12:11.460Z,15.98
2022-10-04T04:14:41.130Z,11.98
2022-10-04T04:17:47.015Z,14.80
2022-10-04T04:20:18.637Z,16.70
2022-10-04T04:22:52.329Z,21.88
2022-10-04T04:25:18.936Z,19.08
2022-10-04T04:27:47.530Z,31.10
2022-10-04T04:30:17.855Z,18.83
2022-10-04T04:32:51.438Z,13.50
2022-10-04T04:35:32.916Z,20.50
2022-10-04T04:38:06.857Z,18.73
2022-10-04T04:40:33.465Z,13.15
2022-10-04T04:43:02.001Z,37.10
2022-10-04T04:45:30.611Z,29.08
2022-10-04T04:47:58.519Z,28.45
2022-10-04T04:50:28.815Z,25.40
2022-10-04T04:53:00.417Z,45.53
2022-10-04T04:55:44.515Z,66.63
2022-10-04T04:58:20.069Z,40.95
2022-10-04T05:00:54.750Z,23.83
2022-10-04T05:03:21.690Z,32.13
2022-10-04T05:05:48.235Z,46.67
2022-10-04T05:08:19.692Z,22.30
2022-10-04T05:10:58.528Z,24.15
2022-10-04T05:13:36.982Z,21.38
2022-10-04T05:16:03.556Z,20.77
2022-10-04T05:18:31.171Z,13.38
2022-10-04T05:21:04.568Z,25.52
2022-10-04T05:23:30.940Z,12.02
2022-10-04T05:25:57.858Z,9.00
2022-10-04T05:28:24.368Z,20.73
2022-10-04T05:31:24.422Z,23.58
2022-10-04T05:33:55.192Z,8.38
2022-10-04T05:36:34.312Z,9.95
2022-10-04T05:39:22.566Z,10.07
2022-10-04T05:41:56.433Z,18.88
2022-10-04T05:44:35.099Z,14.57
2022-10-04T05:47:05.623Z,11.18
2022-10-04T05:49:42.117Z,19.20
2022-10-04T05:52:16.274Z,34.17
2022-10-04T05:54:42.846Z,20.33
2022-10-04T05:57:33.539Z,10.40
2022-10-04T06:00:21.063Z,28.98
2022-10-04T06:02:47.546Z,16.83
2022-10-04T06:05:29.388Z,14.45
2022-10-04T06:08:29.156Z,11.45
2022-10-04T06:11:13.743Z,15.57
2022-10-04T06:14:22.530Z,13.60
2022-10-04T06:17:03.999Z,10.68
2022-10-04T06:19:51.459Z,13.57
2022-10-04T06:22:20.156Z,10.68
2022-10-04T06:25:07.646Z,11.57
2022-10-04T06:27:40.030Z,14.13
2022-10-04T06:30:15.221Z,14.65
2022-10-04T06:33:08.709Z,17.17
2022-10-04T06:35:38.194Z,11.85
2022-10-04T06:38:30.858Z,22.55
2022-10-04T06:41:03.280Z,8.35
2022-10-04T06:43:47.924Z,16.65
2022-10-04T06:46:34.699Z,25.90
2022-10-04T06:49:20.853Z,13.48
2022-10-04T06:51:59.430Z,8.75
2022-10-04T06:54:55.420Z,39.78
2022-10-04T06:57:43.240Z,18.10
2022-10-04T07:00:18.635Z,12.60
2022-10-04T07:03:11.459Z,14.25
2022-10-04T07:05:52.862Z,10.80
2022-10-04T07:08:24.637Z,9.57
2022-10-04T07:10:56.945Z,9.73
2022-10-04T07:13:56.469Z,10.38
2022-10-04T07:16:51.714Z,8.25
2022-10-04T07:19:33.317Z,9.60
2022-10-04T07:22:14.144Z,6.70
2022-10-04T07:25:17.864Z,8.52
2022-10-04T07:27:58.199Z,9.90
2022-10-04T07:30:24.696Z,11.25
2022-10-04T07:32:51.926Z,13.05
2022-10-04T07:35:55.104Z,9.35
2022-10-04T07:38:29.046Z,9.00
2022-10-04T07:40:58.441Z,8.85
2022-10-04T07:43:32.738Z,11.05
2022-10-04T07:46:11.071Z,12.55
2022-10-04T07:48:40.995Z,10.15
2022-10-04T07:51:19.689Z,8.23
2022-10-04T07:53:53.668Z,10.70
2022-10-04T07:56:35.258Z,10.18
2022-10-04T07:59:17.054Z,9.85
2022-10-04T08:01:52.447Z,9.65
2022-10-04T08:05:09.982Z,10.27
2022-10-04T08:07:45.410Z,9.85
2022-10-04T08:10:22.810Z,9.00
2022-10-04T08:13:05.601Z,15.45
2022-10-04T08:15:40.484Z,7.47
2022-10-04T08:18:20.565Z,8.95
2022-10-04T08:20:53.862Z,7.10
2022-10-04T08:23:39.270Z,8.45
2022-10-04T08:26:26.857Z,7.05
2022-10-04T08:28:53.277Z,6.90
2022-10-04T08:31:38.546Z,8.70
2022-10-04T08:34:29.805Z,6.63
2022-10-04T08:37:01.941Z,7.47
2022-10-04T08:40:12.998Z,7.10
2022-10-04T08:43:16.616Z,8.23
2022-10-04T08:46:06.411Z,9.23
2022-10-04T08:48:51.010Z,13.63
2022-10-04T08:51:54.419Z,7.90
2022-10-04T08:54:45.099Z,7.53
2022-10-04T08:57:15.870Z,8.00
2022-10-04T09:00:11.522Z,9.40
2022-10-04T09:03:25.304Z,9.38
2022-10-04T09:06:13.009Z,7.47
2022-10-04T09:09:13.335Z,8.95
2022-10-04T09:12:12.713Z,21.73
2022-10-04T09:14:56.565Z,10.25
2022-10-04T09:17:46.460Z,7.53
2022-10-04T09:20:38.889Z,12.60
2022-10-04T09:23:24.173Z,7.82
2022-10-04T09:25:56.651Z,7.82
2022-10-04T09:28:44.894Z,8.02
2022-10-04T09:31:23.319Z,6.60
2022-10-04T09:34:37.470Z,8.00
2022-10-04T09:37:32.145Z,17.88
2022-10-04T09:40:10.978Z,11.23
2022-10-04T09:43:04.448Z,7.63
2022-10-04T09:46:06.370Z,11.10
2022-10-04T09:48:42.186Z,9.77
2022-10-04T09:51:26.777Z,10.43
2022-10-04T09:54:07.350Z,7.88
2022-10-04T09:57:07.695Z,8.00
2022-10-04T09:59:56.733Z,6.95
2022-10-04T10:02:32.390Z,9.48
2022-10-04T10:05:23.019Z,10.85
2022-10-04T10:08:07.507Z,8.07
2022-10-04T10:10:47.671Z,6.43
2022-10-04T10:13:57.852Z,7.95
2022-10-04T10:17:03.380Z,11.05
2022-10-04T10:19:48.319Z,8.57
2022-10-04T10:22:27.612Z,6.60
2022-10-04T10:25:10.250Z,9.32
2022-10-04T10:28:07.944Z,7.95
2022-10-04T10:31:11.418Z,15.52
2022-10-04T10:34:13.944Z,8.98
2022-10-04T10:37:06.523Z,5.88
2022-10-04T10:39:51.101Z,5.93
2022-10-04T10:42:39.100Z,6.05
2022-10-04T10:45:17.683Z,7.05
2022-10-04T10:47:54.123Z,6.70
2022-10-04T10:50:43.699Z,9.00
2022-10-04T10:53:29.650Z,4.72
2022-10-04T10:56:27.999Z,6.20
2022-10-04T10:59:22.996Z,6.97
2022-10-04T11:01:57.435Z,5.32
2022-10-04T11:04:44.047Z,5.68
2022-10-04T11:07:46.335Z,7.28
2022-10-04T11:10:12.789Z,6.30
2022-10-04T11:13:19.732Z,6.22
2022-10-04T11:15:59.069Z,4.97
2022-10-04T11:18:46.428Z,4.18
2022-10-04T11:21:44.164Z,5.50
2022-10-04T11:24:32.596Z,5.60
2022-10-04T11:27:30.238Z,14.00
2022-10-04T11:30:02.419Z,7.28
2022-10-04T11:33:17.180Z,5.72
2022-10-04T11:36:02.592Z,6.90
2022-10-04T11:38:51.790Z,5.18
2022-10-04T11:41:46.668Z,6.50
2022-10-04T11:44:50.922Z,4.78
2022-10-04T11:47:39.420Z,3.85
2022-10-04T11:50:09.415Z,7.70
2022-10-04T11:52:59.252Z,4.55
2022-10-04T11:55:55.411Z,4.28
2022-10-04T11:58:43.337Z,4.28
2022-10-04T12:01:57.794Z,4.75
2022-10-04T12:04:41.143Z,5.95
2022-10-04T12:07:26.552Z,3.78
2022-10-04T12:10:24.374Z,6.05
2022-10-04T12:13:12.439Z,9.43
2022-10-04T12:15:50.983Z,4.72
2022-10-04T12:18:27.531Z,3.53
2022-10-04T12:20:59.944Z,4.38
2022-10-04T12:23:44.981Z,4.32
2022-10-04T12:26:19.386Z,6.65
2022-10-04T12:28:58.165Z,2.70
2022-10-04T12:31:40.984Z,6.07
2022-10-04T12:34:10.501Z,4.70
2022-10-04T12:36:48.366Z,5.55
2022-10-04T12:39:26.436Z,6.20
2022-10-04T12:42:10.955Z,4.35
2022-10-04T12:44:55.036Z,7.88
2022-10-04T12:47:42.679Z,7.18
2022-10-04T12:50:35.525Z,3.83
2022-10-04T12:53:20.607Z,4.85
2022-10-04T12:56:00.603Z,2.85
2022-10-04T12:58:36.165Z,4.80
2022-10-04T13:01:17.077Z,3.75
2022-10-04T13:03:43.472Z,3.08
2022-10-04T13:06:13.893Z,4.25
2022-10-04T13:08:50.774Z,3.53
2022-10-04T13:11:37.386Z,4.07
2022-10-04T13:14:26.978Z,4.13
2022-10-04T13:20:21.315Z,2.97
2022-10-04T13:23:22.578Z,3.92
2022-10-04T13:26:02.684Z,4.13
2022-10-04T13:29:01.157Z,4.82
2022-10-04T13:31:51.184Z,5.60
2022-10-04T13:34:57.359Z,1.98
2022-10-04T13:37:42.896Z,2.00
2022-10-04T13:40:50.470Z,3.70
2022-10-04T13:43:27.567Z,4.78
2022-10-04T13:46:07.389Z,5.40
2022-10-04T13:49:18.417Z,3.72
2022-10-04T13:51:44.973Z,3.10
2022-10-04T13:54:40.522Z,3.90
2022-10-04T13:57:30.922Z,2.70
2022-10-04T14:00:11.954Z,6.25
2022-10-04T14:02:50.461Z,5.07
2022-10-04T14:05:23.025Z,5.60
2022-10-04T14:08:17.187Z,3.33
2022-10-04T14:10:43.543Z,8.18
2022-10-04T14:13:47.881Z,4.07
2022-10-04T14:16:29.382Z,3.97
2022-10-04T14:19:22.336Z,5.75
2022-10-04T14:22:13.427Z,3.67
2022-10-04T14:24:41.266Z,4.35
2022-10-04T14:27:37.701Z,6.30
2022-10-04T14:30:19.524Z,2.75
2022-10-04T14:33:18.654Z,2.28
2022-10-04T14:36:03.420Z,4.18
2022-10-04T14:38:38.790Z,4.10
2022-10-04T14:41:38.948Z,2.65
2022-10-04T14:44:20.414Z,3.33
2022-10-04T14:47:11.454Z,2.63
2022-10-04T14:50:01.166Z,5.80
2022-10-04T14:53:12.972Z,3.37
2022-10-04T14:55:57.755Z,2.92
2022-10-04T14:58:43.095Z,5.68
2022-10-04T15:01:22.265Z,3.53
2022-10-04T15:04:09.860Z,7.53
2022-10-04T15:06:39.211Z,3.28
2022-10-04T15:09:05.512Z,2.15
2022-10-04T15:11:40.567Z,5.03
2022-10-04T15:14:29.541Z,6.05
2022-10-04T15:16:59.579Z,4.53
2022-10-04T15:19:53.114Z,2.10
2022-10-04T15:22:28.396Z,1.95
2022-10-04T15:24:55.200Z,2.35
2022-10-04T15:27:34.263Z,4.00
2022-10-04T15:30:09.847Z,4.18
2022-10-04T15:33:09.226Z,2.45
2022-10-04T15:35:54.185Z,5.10
2022-10-04T15:38:36.161Z,3.40
2022-10-04T15:41:08.337Z,4.70
2022-10-04T15:43:40.925Z,4.82
2022-10-04T15:46:42.044Z,3.17
2022-10-04T15:49:22.945Z,2.60
2022-10-04T15:51:55.476Z,2.20
2022-10-04T15:54:47.405Z,3.35
2022-10-04T15:57:37.229Z,1.77
2022-10-04T16:00:14.640Z,3.72
2022-10-04T16:02:50.283Z,3.47
2022-10-04T16:05:39.238Z,2.72
2022-10-04T16:08:14.666Z,4.15
2022-10-04T16:11:15.112Z,4.00
2022-10-04T16:13:45.339Z,3.22
2022-10-04T16:16:17.600Z,5.57
2022-10-04T16:19:02.804Z,4.20
2022-10-04T16:21:47.671Z,4.47
2022-10-04T16:24:19.783Z,2.72
2022-10-04T16:26:46.357Z,3.60
2022-10-04T16:29:34.466Z,4.03
2022-10-04T16:32:19.174Z,2.70
2022-10-04T16:35:02.115Z,3.95
2022-10-04T16:37:55.715Z,4.78
2022-10-04T16:40:37.740Z,4.18
2022-10-04T16:43:26.691Z,6.53
2022-10-04T16:46:14.753Z,4.63
2022-10-04T16:48:57.960Z,6.15
2022-10-04T16:51:46.679Z,6.68
2022-10-04T16:54:56.874Z,5.88
2022-10-04T16:57:26.165Z,5.38
2022-10-04T16:59:58.883Z,5.95
2022-10-04T17:02:37.510Z,5.00
2022-10-04T17:05:44.653Z,8.02
2022-10-04T17:08:17.212Z,3.72
2022-10-04T17:10:46.423Z,6.05
2022-10-04T17:13:19.487Z,12.07
2022-10-04T17:16:24.015Z,12.13
2022-10-04T17:19:09.353Z,8.07
2022-10-04T17:21:57.614Z,8.70
2022-10-04T17:24:59.568Z,5.35
2022-10-04T17:27:27.507Z,6.57
2022-10-04T17:30:03.208Z,8.50
2022-10-04T17:32:57.747Z,7.13
2022-10-04T17:36:01.544Z,5.03
2022-10-04T17:38:41.407Z,11.20
2022-10-04T17:41:17.801Z,9.30
2022-10-04T17:44:21.901Z,6.65
2022-10-04T17:47:14.746Z,9.20
2022-10-04T17:49:52.773Z,9.02
2022-10-04T17:52:27.665Z,6.93
2022-10-04T17:54:59.315Z,8.77
2022-10-04T17:57:34.521Z,6.95
2022-10-04T18:00:14.345Z,7.20
2022-10-04T18:03:00.992Z,7.20
2022-10-04T18:05:43.372Z,8.23
2022-10-04T18:08:12.739Z,8.57
2022-10-04T18:10:50.509Z,14.20
2022-10-04T18:13:36.003Z,9.48
2022-10-04T18:16:23.977Z,11.25
2022-10-04T18:18:50.670Z,8.40
2022-10-04T18:21:27.648Z,8.70
2022-10-04T18:23:55.518Z,8.13
2022-10-04T18:26:23.400Z,10.82
2022-10-04T18:28:52.945Z,9.98
2022-10-04T18:31:24.648Z,11.32
2022-10-04T18:33:52.494Z,9.20
2022-10-04T18:36:24.298Z,7.25
2022-10-04T18:39:17.982Z,7.88
2022-10-04T18:42:15.737Z,12.02
2022-10-04T18:44:47.322Z,10.40
2022-10-04T18:47:45.022Z,8.25
2022-10-04T18:50:22.272Z,10.20
2022-10-04T18:53:10.613Z,10.32
2022-10-04T18:55:55.508Z,10.73
2022-10-04T18:58:40.111Z,10.57
2022-10-04T19:01:32.766Z,11.40
2022-10-04T19:04:13.399Z,10.65
2022-10-04T19:06:46.443Z,11.20
2022-10-04T19:09:16.092Z,15.32
2022-10-04T19:11:51.781Z,12.10
2022-10-04T19:14:36.636Z,12.73
2022-10-04T19:17:41.300Z,10.95
2022-10-04T19:20:19.482Z,14.82
2022-10-04T19:23:04.682Z,13.18
2022-10-04T19:25:35.155Z,9.40
2022-10-04T19:28:17.390Z,12.25
2022-10-04T19:31:02.069Z,12.93
2022-10-04T19:33:50.363Z,9.00
2022-10-04T19:36:23.354Z,7.18
2022-10-04T19:39:12.375Z,8.57
2022-10-04T19:41:51.663Z,11.98
2022-10-04T19:44:51.906Z,9.82
2022-10-04T19:47:39.031Z,8.05
2022-10-04T19:50:32.103Z,10.93
2022-10-04T19:53:17.078Z,9.80
2022-10-04T19:55:57.955Z,7.05
2022-10-04T20:00:56.848Z,8.20
2022-10-04T20:03:23.275Z,8.25
2022-10-04T20:05:52.264Z,22.50
2022-10-04T20:08:49.652Z,8.25
2022-10-04T20:11:37.523Z,9.60
2022-10-04T20:14:06.712Z,9.50
2022-10-04T20:16:48.983Z,7.13
2022-10-04T20:19:20.056Z,9.05
2022-10-04T20:21:46.503Z,12.77
2022-10-04T20:24:18.267Z,11.23
2022-10-04T20:26:49.393Z,9.23
2022-10-04T20:29:37.608Z,11.82
2022-10-04T20:32:06.044Z,7.93
2022-10-04T20:34:38.560Z,12.95
2022-10-04T20:37:08.341Z,10.55
2022-10-04T20:39:40.680Z,9.68
2022-10-04T20:42:25.253Z,15.82
2022-10-04T20:44:57.333Z,14.63
2022-10-04T20:47:43.048Z,10.63
2022-10-04T20:50:09.499Z,10.80
2022-10-04T20:52:36.867Z,11.15
2022-10-04T20:55:16.799Z,10.70
2022-10-04T20:57:43.212Z,18.33
2022-10-04T21:00:24.430Z,10.32
2022-10-04T21:03:08.554Z,12.93
2022-10-04T21:05:35.182Z,13.77
2022-10-04T21:08:23.082Z,12.95
2022-10-04T21:11:09.479Z,12.32
2022-10-04T21:13:56.739Z,11.18
2022-10-04T21:16:36.954Z,14.65
2022-10-04T21:19:29.223Z,18.67
2022-10-04T21:21:56.407Z,14.75
2022-10-04T21:24:40.256Z,15.32
2022-10-04T21:27:09.490Z,12.48
2022-10-04T21:29:37.217Z,13.55
2022-10-04T21:32:04.417Z,10.57
2022-10-04T21:34:51.837Z,8.57
2022-10-04T21:37:18.392Z,8.93
2022-10-04T21:39:45.238Z,11.43
2022-10-04T21:42:11.989Z,10.57
2022-10-04T21:44:38.353Z,13.13
2022-10-04T21:47:04.855Z,10.02
2022-10-04T21:49:31.357Z,9.63
2022-10-04T21:51:57.806Z,10.63
2022-10-04T21:54:24.216Z,15.43
2022-10-04T21:56:50.769Z,11.73
2022-10-04T21:59:17.263Z,13.48
2022-10-04T22:01:43.606Z,11.25
2022-10-04T22:04:10.082Z,9.40
2022-10-04T22:06:36.612Z,14.90
2022-10-04T22:09:04.320Z,12.13
2022-10-04T22:11:30.898Z,12.13
2022-10-04T22:13:57.399Z,12.38
2022-10-04T22:16:23.799Z,10.00
2022-10-04T22:18:50.349Z,17.92
2022-10-04T22:21:16.819Z,12.25
2022-10-04T22:23:44.514Z,13.93
2022-10-04T22:26:16.408Z,7.80
2022-10-04T22:28:53.663Z,9.95
2022-10-04T22:31:27.512Z,11.63
2022-10-04T22:33:54.755Z,8.30
2022-10-04T22:36:39.929Z,10.55
2022-10-04T22:39:17.493Z,12.43
2022-10-04T22:41:47.022Z,10.88
2022-10-04T22:44:18.021Z,12.60
2022-10-04T22:46:47.291Z,9.63
2022-10-04T22:49:16.907Z,9.80
2022-10-04T22:51:47.316Z,11.57
2022-10-04T22:54:17.456Z,19.67
2022-10-04T22:56:44.476Z,11.85
2022-10-04T22:59:13.478Z,16.35
2022-10-04T23:01:40.537Z,11.90
2022-10-04T23:04:20.888Z,11.15
2022-10-04T23:06:48.383Z,12.23
2022-10-04T23:09:15.042Z,18.15
2022-10-04T23:11:41.635Z,15.88
2022-10-04T23:14:08.124Z,13.30
2022-10-04T23:16:36.489Z,14.55
2022-10-04T23:19:13.040Z,11.85
2022-10-04T23:21:42.974Z,13.32
2022-10-04T23:24:21.466Z,12.90
2022-10-04T23:26:52.777Z,18.02
2022-10-04T23:29:19.505Z,12.20
2022-10-04T23:31:46.882Z,9.13
2022-10-04T23:34:17.876Z,12.43
2022-10-04T23:36:45.460Z,11.68
2022-10-04T23:39:19.620Z,13.40
2022-10-04T23:41:46.274Z,10.15
2022-10-04T23:44:14.446Z,13.77
2022-10-04T23:46:40.960Z,10.63
2022-10-04T23:49:15.240Z,14.48
2022-10-04T23:51:42.476Z,14.13
2022-10-04T23:54:18.354Z,10.80
2022-10-04T23:56:45.880Z,15.48
2022-10-04T23:59:21.822Z,11.82
